Time;durP1;ratioP1;P1;durP2;ratioP2;P2;SDS_P1;SDS_P2;PMS_P1;PMS_P2;Temp;Humidity;BMP_temperature;BMP_pressure;BME280_temperature;BME280_humidity;BME280_pressure;Samples;Min_cycle;Max_cycle;Signal;HPM_P1;HPM_P2
2022/09/17 00:01:27;;;;;;;0.30;0.20;;;12.40;99.90;;;13.14;72.36;100286.50;4983141;28;20643;-66
2022/09/17 00:03:59;;;;;;;0.30;0.30;;;12.40;99.90;;;13.13;72.67;100284.84;4987627;28;21007;-66
2022/09/17 00:06:26;;;;;;;0.30;0.30;;;12.40;99.90;;;13.11;71.90;100292.03;4985645;28;20661;-66
2022/09/17 00:08:54;;;;;;;0.30;0.30;;;12.40;99.90;;;13.18;71.91;100285.28;4979831;28;21250;-65
2022/09/17 00:11:30;;;;;;;0.30;0.20;;;12.50;99.90;;;13.19;72.34;100292.16;4978520;28;20639;-65
2022/09/17 00:14:00;;;;;;;0.30;0.30;;;12.50;99.90;;;13.21;71.81;100283.22;4988019;28;21191;-64
2022/09/17 00:16:35;;;;;;;0.30;0.30;;;12.50;99.90;;;13.12;72.50;100283.19;4971325;28;21228;-67
2022/09/17 00:19:04;;;;;;;0.30;0.30;;;12.50;99.90;;;13.09;71.66;100288.72;4972885;28;20633;-66
2022/09/17 00:21:31;;;;;;;0.30;0.20;;;12.40;99.90;;;13.08;72.15;100289.66;4972196;28;20616;-66
2022/09/17 00:24:03;;;;;;;0.30;0.30;;;12.40;99.90;;;12.88;72.99;100291.38;4972109;28;20686;-66
2022/09/17 00:26:31;;;;;;;0.30;0.23;;;12.30;99.90;;;12.88;72.49;100286.16;4972369;28;21096;-67
2022/09/17 00:28:59;;;;;;;0.30;0.20;;;12.30;99.90;;;12.83;73.31;100290.13;4971513;28;21031;-68
2022/09/17 00:31:27;;;;;;;0.30;0.20;;;12.20;99.90;;;12.81;73.06;100282.41;4972403;28;20622;-65
2022/09/17 00:33:55;;;;;;;0.30;0.30;;;12.20;99.90;;;12.85;72.72;100282.94;4970911;28;21182;-66
2022/09/17 00:36:22;;;;;;;0.30;0.30;;;12.20;99.90;;;12.69;73.26;100285.25;4972216;28;20634;-65
2022/09/17 00:38:58;;;;;;;0.30;0.30;;;12.10;99.90;;;12.70;73.68;100292.13;4983688;28;20684;-65
2022/09/17 00:41:33;;;;;;;0.30;0.30;;;12.10;99.90;;;12.51;74.30;100294.66;5003372;28;20626;-66
2022/09/17 00:44:40;;;;;;;0.30;0.30;;;12.00;99.90;;;12.62;73.74;100289.34;4996965;28;20634;-66
2022/09/17 00:47:29;;;;;;;0.30;0.30;;;12.00;99.90;;;12.48;74.09;100293.13;4992232;28;20700;-66
2022/09/17 00:50:09;;;;;;;0.30;0.20;;;11.90;99.90;;;12.45;74.21;100288.16;4992487;28;20666;-66
2022/09/17 00:52:57;;;;;;;0.30;0.30;;;11.90;99.90;;;12.48;74.40;100297.56;4990513;28;20634;-65
2022/09/17 00:55:36;;;;;;;0.30;0.30;;;11.80;99.90;;;12.47;74.59;100299.34;4989854;28;20635;-65
2022/09/17 00:58:08;;;;;;;0.30;0.20;;;11.90;99.90;;;12.42;74.90;100298.88;4997152;28;20696;-65
2022/09/17 01:00:36;;;;;;;0.30;0.20;;;11.90;99.90;;;12.48;74.06;100301.81;5000292;28;20657;-65
2022/09/17 01:03:03;;;;;;;0.30;0.30;;;11.80;99.90;;;12.36;75.04;100302.84;4993758;28;20615;-66
2022/09/17 01:05:53;;;;;;;0.30;0.30;;;11.80;99.90;;;12.46;74.79;100302.91;4977664;28;20713;-67
2022/09/17 01:08:37;;;;;;;0.30;0.23;;;11.80;99.90;;;12.42;74.74;100299.72;4974562;28;20743;-64
2022/09/17 01:11:35;;;;;;;0.50;0.50;;;11.80;99.90;;;12.35;74.34;100303.81;4974992;28;20717;-65
2022/09/17 01:14:49;;;;;;;0.30;0.30;;;11.80;99.90;;;12.35;74.46;100303.81;4974190;28;20681;-66
2022/09/17 01:17:34;;;;;;;0.30;0.30;;;11.70;99.90;;;12.33;75.00;100308.34;4975926;28;20666;-65
2022/09/17 01:20:42;;;;;;;0.30;0.20;;;11.70;99.90;;;12.34;75.47;100304.78;4975631;28;20615;-66
2022/09/17 01:23:48;;;;;;;0.30;0.20;;;11.70;99.90;;;12.33;74.83;100305.72;4975524;28;20972;-65
2022/09/17 01:26:52;;;;;;;0.30;0.30;;;11.70;99.90;;;12.28;74.36;100301.84;4977662;28;20721;-65
2022/09/17 01:29:40;;;;;;;0.30;0.30;;;11.70;99.90;;;12.30;74.44;100298.16;5014768;28;21259;-67
2022/09/17 01:32:24;;;;;;;0.30;0.20;;;11.70;99.90;;;12.31;74.24;100310.25;5014546;28;20621;-64
2022/09/17 01:35:14;;;;;;;0.30;0.23;;;11.70;99.90;;;12.22;74.87;100311.03;5004708;28;20657;-66
2022/09/17 01:37:49;;;;;;;0.30;0.20;;;11.70;99.90;;;12.16;74.97;100313.34;4994856;28;20628;-65
2022/09/17 01:40:27;;;;;;;0.30;0.23;;;11.60;99.90;;;12.18;75.40;100312.22;5004205;28;20750;-66
2022/09/17 01:43:08;;;;;;;0.30;0.30;;;11.60;99.90;;;12.11;75.09;100305.88;5012125;28;20617;-66
2022/09/17 01:45:42;;;;;;;0.30;0.20;;;11.60;99.90;;;11.95;76.40;100315.94;4999242;28;20719;-65
2022/09/17 01:48:18;;;;;;;0.30;0.30;;;11.50;99.90;;;12.09;75.46;100318.25;4974144;28;20619;-65
2022/09/17 01:50:57;;;;;;;0.30;0.30;;;11.40;99.90;;;12.12;76.13;100323.22;4972722;28;20670;-66
2022/09/17 01:53:34;;;;;;;0.30;0.20;;;11.50;99.90;;;12.11;75.18;100332.03;4973746;28;20622;-64
2022/09/17 01:56:02;;;;;;;0.30;0.20;;;11.50;99.90;;;12.04;75.97;100325.63;4973453;28;20638;-63
2022/09/17 01:58:38;;;;;;;0.30;0.20;;;11.40;99.90;;;12.09;76.22;100322.66;4980244;28;20629;-66
2022/09/17 02:01:08;;;;;;;0.30;0.30;;;11.50;99.90;;;12.05;75.40;100321.25;5005863;28;20679;-64
2022/09/17 02:03:49;;;;;;;0.30;0.20;;;11.50;99.90;;;12.02;75.80;100324.94;4996462;28;21003;-64
2022/09/17 02:06:23;;;;;;;0.30;0.30;;;11.40;99.90;;;11.95;76.20;100330.78;4973728;28;21002;-65
2022/09/17 02:08:57;;;;;;;0.30;0.20;;;11.40;99.90;;;12.13;75.90;100330.13;4973516;28;20666;-64
2022/09/17 02:11:24;;;;;;;0.30;0.23;;;11.40;99.90;;;12.14;75.25;100325.69;4974627;28;20660;-64
2022/09/17 02:14:02;;;;;;;0.30;0.20;;;11.50;99.90;;;12.17;74.88;100334.13;4972335;28;20714;-65
2022/09/17 02:16:34;;;;;;;0.30;0.20;;;11.40;99.90;;;12.05;75.65;100332.50;4973442;28;21052;-65
2022/09/17 02:19:10;;;;;;;0.30;0.30;;;11.40;99.90;;;12.04;76.30;100333.47;4975122;28;21262;-65
2022/09/17 02:22:02;;;;;;;0.30;0.20;;;11.40;99.90;;;11.94;76.96;100343.06;4972018;28;20705;-67
2022/09/17 02:25:00;;;;;;;0.30;0.20;;;11.40;99.90;;;11.96;77.05;100341.13;4982593;28;20634;-65
2022/09/17 02:27:35;;;;;;;0.30;0.20;;;11.30;99.90;;;12.04;75.84;100346.56;4993897;28;20609;-67
2022/09/17 02:30:04;;;;;;;0.30;0.20;;;11.30;99.90;;;12.00;75.86;100350.38;4997144;28;20663;-65
2022/09/17 02:32:31;;;;;;;0.30;0.23;;;11.30;99.90;;;11.94;75.79;100343.06;4975635;28;20611;-64
2022/09/17 02:34:57;;;;;;;0.30;0.20;;;11.30;99.90;;;11.91;76.47;100340.69;4977636;28;20659;-64
2022/09/17 02:37:24;;;;;;;0.30;0.30;;;11.20;99.90;;;11.85;77.13;100350.78;4994172;28;20741;-65
2022/09/17 02:39:51;;;;;;;0.30;0.20;;;11.20;99.90;;;11.88;76.73;100342.72;4994191;28;20642;-67
2022/09/17 02:42:59;;;;;;;0.30;0.30;;;11.20;99.90;;;12.03;76.77;100344.88;5011854;28;20624;-66
2022/09/17 02:46:16;;;;;;;0.30;0.30;;;11.20;99.90;;;12.01;76.68;100336.34;5011143;28;20680;-65
2022/09/17 02:49:09;;;;;;;0.30;0.30;;;11.30;99.90;;;11.99;76.47;100337.44;4974950;28;20666;-66
2022/09/17 02:51:54;;;;;;;0.30;0.20;;;11.30;99.90;;;11.77;76.69;100329.69;4973378;28;20694;-67
2022/09/17 02:54:54;;;;;;;0.30;0.20;;;11.30;99.90;;;11.85;76.13;100329.88;4974795;28;20672;-65
2022/09/17 02:58:25;;;;;;;0.30;0.20;;;11.20;99.90;;;11.88;76.30;100330.50;4974367;28;20672;-65
2022/09/17 03:00:54;;;;;;;0.30;0.20;;;11.20;99.90;;;11.85;77.11;100330.72;4995544;28;20626;-66
2022/09/17 03:03:51;;;;;;;0.30;0.30;;;11.20;99.90;;;11.88;76.87;100333.09;5002418;28;20660;-62
2022/09/17 03:06:18;;;;;;;0.30;0.30;;;11.20;99.90;;;11.80;77.25;100332.88;4973604;28;20726;-64
2022/09/17 03:08:46;;;;;;;0.30;0.30;;;11.20;99.90;;;11.93;76.43;100323.06;4973132;28;20619;-64
2022/09/17 03:11:13;;;;;;;0.30;0.20;;;11.20;99.90;;;11.93;76.83;100328.31;4971876;28;20668;-64
2022/09/17 03:13:41;;;;;;;0.30;0.20;;;11.20;99.90;;;12.00;76.64;100324.25;4973630;28;20636;-64
2022/09/17 03:16:08;;;;;;;0.30;0.20;;;11.30;99.90;;;11.96;76.74;100325.44;4974540;28;20635;-65
2022/09/17 03:18:35;;;;;;;0.30;0.20;;;11.30;99.90;;;12.10;75.69;100326.91;4979760;28;20694;-65
2022/09/17 03:21:02;;;;;;;0.30;0.20;;;11.40;99.90;;;12.21;75.34;100330.31;5000087;28;20647;-66
2022/09/17 03:23:29;;;;;;;0.30;0.30;;;11.40;99.90;;;12.25;75.21;100334.31;4991138;28;20712;-65
2022/09/17 03:25:56;;;;;;;0.30;0.20;;;11.50;99.90;;;12.33;74.23;100331.88;4992300;28;20669;-66
2022/09/17 03:28:25;;;;;;;0.30;0.20;;;11.60;99.90;;;12.17;75.48;100331.50;4998263;28;21058;-66
2022/09/17 03:30:52;;;;;;;0.30;0.20;;;11.60;99.90;;;12.26;74.38;100329.91;5012070;28;20653;-66
2022/09/17 03:33:19;;;;;;;0.30;0.30;;;11.60;99.90;;;12.25;75.14;100329.09;4985432;28;20643;-65
2022/09/17 03:35:46;;;;;;;0.30;0.30;;;11.60;99.90;;;12.25;74.96;100329.09;4983204;28;20655;-67
2022/09/17 03:38:14;;;;;;;0.30;0.20;;;11.60;99.90;;;12.23;74.92;100333.63;4990857;28;20684;-66
2022/09/17 03:40:41;;;;;;;0.30;0.20;;;11.60;99.90;;;12.22;74.23;100331.94;4991318;28;21040;-66
2022/09/17 03:43:08;;;;;;;0.30;0.30;;;11.60;99.90;;;12.22;74.81;100328.53;4992268;28;21035;-66
2022/09/17 03:45:35;;;;;;;0.30;0.20;;;11.50;99.90;;;12.07;75.60;100330.63;4992394;28;20638;-66
2022/09/17 03:48:06;;;;;;;0.30;0.20;;;11.50;99.90;;;12.16;74.99;100340.31;4996473;28;20688;-65
2022/09/17 03:50:33;;;;;;;0.30;0.20;;;11.50;99.90;;;12.03;74.92;100334.44;4997302;28;20674;-66
2022/09/17 03:52:59;;;;;;;0.30;0.20;;;11.50;99.90;;;12.17;74.74;100344.59;5007264;28;20622;-65
2022/09/17 03:55:26;;;;;;;0.30;0.20;;;11.50;99.90;;;12.28;74.46;100344.53;5011720;28;20634;-65
2022/09/17 03:57:54;;;;;;;0.30;0.20;;;11.60;99.90;;;12.12;74.92;100348.53;5006949;28;20789;-65
2022/09/17 04:00:21;;;;;;;0.30;0.30;;;11.50;99.90;;;12.20;74.85;100348.75;4992756;28;20643;-65
2022/09/17 04:02:48;;;;;;;0.30;0.20;;;11.60;99.90;;;12.22;74.56;100355.50;4988080;28;20635;-65
2022/09/17 04:05:15;;;;;;;0.30;0.20;;;11.60;99.90;;;12.26;74.28;100351.69;4990312;28;21061;-67
2022/09/17 04:07:42;;;;;;;0.30;0.30;;;11.60;99.90;;;12.18;74.37;100356.69;4991174;28;21245;-65
2022/09/17 04:10:09;;;;;;;0.30;0.20;;;11.60;99.90;;;12.20;74.98;100354.78;4992062;28;20689;-67
2022/09/17 04:12:36;;;;;;;0.30;0.20;;;11.60;99.90;;;12.10;75.15;100356.50;4991418;28;20618;-66
2022/09/17 04:15:04;;;;;;;0.30;0.20;;;11.50;99.90;;;12.20;74.39;100360.00;4982644;28;20663;-66
2022/09/17 04:17:31;;;;;;;0.30;0.20;;;11.50;99.90;;;12.21;73.80;100355.63;4972478;28;20608;-65
2022/09/17 04:19:58;;;;;;;0.30;0.30;;;11.60;99.90;;;12.30;74.24;100353.09;4972385;28;20671;-66
2022/09/17 04:22:25;;;;;;;0.30;0.20;;;11.60;99.90;;;12.23;74.03;100354.53;4973903;28;20675;-65
2022/09/17 04:24:53;;;;;;;0.30;0.20;;;11.60;99.90;;;12.24;74.68;100358.84;4996410;28;20717;-67
2022/09/17 04:27:20;;;;;;;0.30;0.30;;;11.60;99.90;;;12.29;73.88;100347.97;5009041;28;21251;-66
2022/09/17 04:29:47;;;;;;;0.30;0.20;;;11.60;99.90;;;12.38;73.62;100347.19;4995374;28;20643;-65
2022/09/17 04:32:13;;;;;;;0.30;0.20;;;11.60;99.90;;;12.37;73.64;100353.41;4972969;28;20672;-67
2022/09/17 04:34:40;;;;;;;0.30;0.30;;;11.70;99.90;;;12.42;72.73;100340.75;4980369;28;20811;-65
2022/09/17 04:37:07;;;;;;;0.30;0.30;;;11.70;99.90;;;12.41;72.73;100345.13;5010203;28;21197;-65
2022/09/17 04:39:34;;;;;;;0.30;0.30;;;11.80;99.90;;;12.39;73.63;100356.72;4993305;28;20685;-67
2022/09/17 04:42:01;;;;;;;0.30;0.20;;;11.70;99.90;;;12.26;74.18;100356.91;4987316;28;20681;-66
2022/09/17 04:44:28;;;;;;;0.30;0.20;;;11.70;99.90;;;12.26;73.63;100361.31;4991165;28;20610;-67
2022/09/17 04:46:55;;;;;;;0.30;0.20;;;11.60;99.90;;;12.32;74.23;100361.63;4991640;28;20649;-65
2022/09/17 04:49:22;;;;;;;0.30;0.30;;;11.60;99.90;;;12.42;72.80;100359.06;4991712;28;20623;-66
2022/09/17 04:51:48;;;;;;;0.30;0.20;;;11.70;99.90;;;12.36;72.97;100364.81;4990456;28;20663;-67
2022/09/17 04:54:15;;;;;;;0.30;0.20;;;11.70;99.90;;;12.41;73.35;100367.88;4990286;28;20614;-66
2022/09/17 04:56:42;;;;;;;0.30;0.20;;;11.70;99.90;;;12.50;72.73;100367.09;4988138;28;21226;-66
2022/09/17 04:59:09;;;;;;;0.30;0.20;;;11.80;99.90;;;12.51;72.67;100370.53;4994433;28;20676;-66
2022/09/17 05:01:36;;;;;;;0.30;0.30;;;11.80;99.90;;;12.57;72.64;100376.09;4995803;28;20680;-65
2022/09/17 05:04:03;;;;;;;0.30;0.20;;;11.80;99.90;;;12.54;72.86;100376.38;4978851;28;20616;-66
2022/09/17 05:06:30;;;;;;;0.30;0.20;;;11.90;99.90;;;12.53;72.40;100381.72;4979553;28;20712;-65
2022/09/17 05:08:57;;;;;;;0.30;0.20;;;11.90;99.90;;;12.55;72.96;100372.78;4990935;28;20615;-65
2022/09/17 05:11:23;;;;;;;0.30;0.20;;;11.90;99.90;;;12.48;73.15;100376.84;4990224;28;20663;-65
2022/09/17 05:13:50;;;;;;;0.30;0.20;;;11.80;99.90;;;12.41;73.56;100373.13;4991736;28;20652;-65
2022/09/17 05:16:17;;;;;;;0.30;0.20;;;11.80;99.90;;;12.39;73.75;100377.66;4991210;28;20631;-66
2022/09/17 05:18:44;;;;;;;0.30;0.30;;;11.80;99.90;;;12.42;74.33;100377.38;4970731;28;20639;-65
2022/09/17 05:21:11;;;;;;;0.30;0.20;;;11.80;99.90;;;12.45;73.86;100382.38;4970668;28;20639;-65
2022/09/17 05:23:38;;;;;;;0.30;0.20;;;11.80;99.90;;;12.38;73.69;100376.81;4970894;28;21243;-65
2022/09/17 05:26:05;;;;;;;0.30;0.20;;;11.80;99.90;;;12.37;74.32;100379.56;5000696;23;20753;-66
2022/09/17 05:28:31;;;;;;;0.30;0.20;;;11.80;99.90;;;12.36;74.63;100386.59;4971343;28;21010;-65
2022/09/17 05:30:59;;;;;;;0.30;0.20;;;11.80;99.90;;;12.51;73.95;100383.63;4989972;28;21237;-65
2022/09/17 05:33:27;;;;;;;0.30;0.30;;;11.80;99.90;;;12.39;74.44;100380.28;4986435;28;20994;-66
2022/09/17 05:35:54;;;;;;;0.30;0.20;;;11.70;99.90;;;12.44;74.26;100389.38;4972618;28;20642;-65
2022/09/17 05:38:21;;;;;;;0.30;0.20;;;11.80;99.90;;;12.30;75.06;100394.94;4989056;28;20637;-66
2022/09/17 05:40:48;;;;;;;0.30;0.20;;;11.80;99.90;;;12.32;74.87;100402.66;4987543;28;20646;-66
2022/09/17 05:43:15;;;;;;;0.30;0.20;;;11.80;99.90;;;12.45;74.78;100398.91;4988636;28;20635;-66
2022/09/17 05:45:42;;;;;;;0.30;0.27;;;11.80;99.90;;;12.46;75.14;100399.72;4989517;28;20662;-66
2022/09/17 05:48:14;;;;;;;0.30;0.30;;;11.80;99.90;;;12.47;75.04;100409.25;4988775;28;20630;-66
2022/09/17 05:50:41;;;;;;;0.30;0.20;;;11.80;99.90;;;12.41;75.31;100407.94;4993478;28;20629;-66
2022/09/17 05:53:12;;;;;;;0.30;0.23;;;11.80;99.90;;;12.46;74.91;100403.16;4994373;28;20680;-66
2022/09/17 05:55:39;;;;;;;0.30;0.20;;;11.80;99.90;;;12.49;75.22;100417.78;4993447;28;20646;-65
2022/09/17 05:58:18;;;;;;;0.30;0.20;;;11.90;99.90;;;12.58;74.99;100408.34;4992252;28;20638;-66
2022/09/17 06:00:47;;;;;;;0.30;0.20;;;11.90;99.90;;;12.59;73.99;100404.75;4993604;28;20622;-66
2022/09/17 06:03:17;;;;;;;0.30;0.30;;;12.00;99.90;;;12.63;74.03;100411.41;4991759;28;20689;-66
2022/09/17 06:05:55;;;;;;;0.30;0.20;;;12.00;99.90;;;12.73;74.10;100412.28;4988816;28;20662;-65
2022/09/17 06:08:23;;;;;;;0.30;0.20;;;12.00;99.90;;;12.85;73.25;100424.34;4991816;28;20618;-65
2022/09/17 06:10:50;;;;;;;0.30;0.20;;;12.10;99.90;;;12.87;73.39;100422.41;4991296;28;21205;-66
2022/09/17 06:13:18;;;;;;;0.30;0.20;;;12.10;99.90;;;12.91;73.01;100429.06;4994621;28;20629;-66
2022/09/17 06:15:52;;;;;;;0.30;0.20;;;12.20;99.90;;;12.97;73.74;100420.66;4992146;28;20716;-66
2022/09/17 06:18:20;;;;;;;0.30;0.20;;;12.20;99.90;;;13.04;72.46;100417.44;4993221;28;20717;-66
2022/09/17 06:20:58;;;;;;;0.30;0.20;;;12.30;99.90;;;13.27;72.07;100427.75;4992798;28;20646;-66
2022/09/17 06:23:26;;;;;;;0.30;0.20;;;12.40;99.90;;;13.33;71.75;100430.66;4993220;28;20614;-65
2022/09/17 06:25:57;;;;;;;0.30;0.20;;;12.50;99.90;;;13.34;71.45;100434.94;4989015;28;20669;-65
2022/09/17 06:28:28;;;;;;;0.30;0.23;;;12.60;99.90;;;13.43;71.14;100441.19;4971948;28;20638;-67
2022/09/17 06:31:00;;;;;;;0.30;0.20;;;12.60;99.90;;;13.96;70.20;100440.75;4993699;28;20618;-66
2022/09/17 06:33:27;;;;;;;0.30;0.20;;;12.90;99.90;;;14.94;66.00;100440.56;4992504;28;20677;-66
2022/09/17 06:36:03;;;;;;;0.30;0.30;;;13.60;99.90;;;15.65;63.86;100446.97;4990420;28;20720;-66
2022/09/17 06:38:35;;;;;;;0.30;0.30;;;14.10;99.90;;;16.42;60.15;100442.78;4979614;28;21056;-66
2022/09/17 06:41:03;;;;;;;0.30;0.30;;;14.70;99.90;;;16.31;60.33;100440.41;4991672;28;21023;-66
2022/09/17 06:43:30;;;;;;;0.30;0.30;;;14.90;99.90;;;16.08;61.41;100449.69;4991187;28;20637;-66
2022/09/17 06:46:01;;;;;;;0.30;0.30;;;14.90;99.90;;;16.68;59.48;100448.13;4993134;28;20642;-66
2022/09/17 06:48:29;;;;;;;0.30;0.30;;;15.20;99.90;;;17.18;57.94;100449.13;4991062;28;20645;-66
2022/09/17 06:51:05;;;;;;;0.30;0.30;;;15.50;99.90;;;17.51;57.01;100453.56;4990439;28;20638;-66
2022/09/17 06:53:32;;;;;;;0.30;0.30;;;15.80;99.90;;;17.91;55.61;100446.78;4992835;28;21061;-65
2022/09/17 06:56:00;;;;;;;0.30;0.30;;;16.20;99.90;;;18.21;54.71;100454.06;4991382;28;21084;-65
2022/09/17 06:58:36;;;;;;;0.30;0.30;;;16.50;99.90;;;18.43;54.29;100438.44;4992963;28;20622;-65
2022/09/17 07:01:04;;;;;;;0.30;0.30;;;16.80;99.90;;;18.59;52.90;100438.44;4993449;28;20625;-65
2022/09/17 07:03:31;;;;;;;0.30;0.30;;;17.10;99.90;;;18.23;53.74;100439.72;4993486;28;20666;-65
2022/09/17 07:05:59;;;;;;;0.30;0.30;;;17.00;99.90;;;17.80;55.56;100438.16;4991532;28;20709;-65
2022/09/17 07:08:26;;;;;;;0.30;0.30;;;16.70;99.90;;;17.82;55.75;100441.47;4992425;28;20734;-65
2022/09/17 07:10:57;;;;;;;0.30;0.30;;;16.60;99.90;;;20.00;51.02;100441.94;4992034;28;20698;-65
2022/09/17 07:13:25;;;;;;;0.30;0.30;;;17.60;99.90;;;21.88;46.23;100441.59;4991604;28;20618;-66
2022/09/17 07:15:59;;;;;;;0.30;0.30;;;19.00;99.90;;;23.43;42.36;100441.47;4990603;28;20693;-65
2022/09/17 07:18:27;;;;;;;0.30;0.30;;;20.40;99.90;;;24.50;39.37;100440.53;4992583;28;20606;-66
2022/09/17 07:20:56;;;;;;;0.30;0.30;;;21.60;96.60;;;25.49;38.07;100449.28;4992093;28;21082;-66
2022/09/17 07:23:28;;;;;;;3.87;2.07;;;22.60;94.50;;;25.37;37.38;100446.41;4991611;28;21261;-66
2022/09/17 07:25:58;;;;;;;0.30;0.30;;;23.10;91.60;;;25.48;36.91;100450.28;4990138;28;20830;-66
2022/09/17 07:28:26;;;;;;;0.30;0.30;;;23.50;89.60;;;25.95;36.66;100452.56;4992749;28;20997;-66
2022/09/17 07:30:54;;;;;;;0.30;0.30;;;23.90;86.60;;;25.98;35.84;100452.13;4974877;28;20638;-66
2022/09/17 07:33:25;;;;;;;0.30;0.30;;;24.20;83.60;;;26.09;35.53;100449.63;4960557;28;20678;-66
2022/09/17 07:35:53;;;;;;;0.30;0.30;;;24.40;81.30;;;26.28;35.38;100447.84;4991496;28;20650;-66
2022/09/17 07:38:21;;;;;;;0.30;0.30;;;24.40;80.60;;;27.01;34.21;100442.72;4988943;28;20643;-65
2022/09/17 07:41:04;;;;;;;0.30;0.30;;;24.80;79.70;;;27.01;34.27;100451.56;4985201;28;20646;-65
2022/09/17 07:43:33;;;;;;;0.30;0.30;;;25.00;77.40;;;26.69;34.73;100444.63;4995173;28;20685;-65
2022/09/17 07:46:03;;;;;;;0.30;0.30;;;25.10;76.70;;;25.80;36.77;100450.16;4992315;28;20697;-66
2022/09/17 07:48:31;;;;;;;0.30;0.30;;;24.50;77.60;;;25.20;37.49;100453.22;4992966;28;20635;-65
2022/09/17 07:50:58;;;;;;;0.30;0.30;;;23.90;78.40;;;25.55;37.10;100459.13;4991447;28;21259;-65
2022/09/17 07:53:25;;;;;;;0.30;0.30;;;23.70;79.40;;;25.29;37.67;100460.00;4989560;28;21017;-65
2022/09/17 07:55:58;;;;;;;0.30;0.30;;;23.40;80.00;;;24.55;38.63;100454.91;4991372;28;21071;-66
2022/09/17 07:58:32;;;;;;;0.30;0.30;;;22.90;81.40;;;23.34;40.93;100453.31;4990927;28;22632;-65
2022/09/17 08:01:04;;;;;;;0.30;0.30;;;22.00;82.90;;;22.45;42.61;100452.19;4990025;28;21022;-66
2022/09/17 08:03:31;;;;;;;0.30;0.30;;;21.30;85.10;;;21.83;44.13;100459.13;4989186;28;21292;-65
2022/09/17 08:06:07;;;;;;;0.30;0.30;;;20.70;87.50;;;21.56;45.10;100458.78;4990839;28;20721;-67
2022/09/17 08:08:36;;;;;;;0.30;0.30;;;20.30;89.50;;;21.40;45.09;100455.50;4992843;28;20629;-64
2022/09/17 08:11:06;;;;;;;0.30;0.30;;;20.00;90.40;;;21.51;44.74;100452.34;4991525;28;20634;-65
2022/09/17 08:13:33;;;;;;;0.30;0.30;;;19.80;91.00;;;21.88;44.81;100452.22;4991063;28;20619;-66
2022/09/17 08:16:04;;;;;;;0.30;0.30;;;20.00;91.40;;;24.06;40.30;100451.78;4990903;28;20684;-65
2022/09/17 08:18:31;;;;;;;0.30;0.30;;;21.30;90.10;;;25.78;36.75;100457.56;4984526;28;20639;-66
2022/09/17 08:21:01;;;;;;;0.30;0.30;;;22.70;86.00;;;26.96;34.45;100464.00;4985518;28;20690;-65
2022/09/17 08:23:30;;;;;;;0.30;0.30;;;23.70;81.60;;;26.15;35.04;100448.75;4980055;28;20737;-67
2022/09/17 08:26:00;;;;;;;0.30;0.30;;;23.90;80.30;;;25.03;36.95;100449.34;4988605;28;20681;-66
2022/09/17 08:28:29;;;;;;;0.30;0.30;;;23.20;79.20;;;25.48;35.63;100450.28;4973323;28;21074;-65
2022/09/17 08:31:05;;;;;;;0.30;0.30;;;23.30;79.20;;;25.24;36.15;100457.94;4991197;28;20634;-65
2022/09/17 08:33:36;;;;;;;0.30;0.30;;;23.10;78.50;;;24.50;37.35;100446.72;4987752;28;20680;-65
2022/09/17 08:36:06;;;;;;;0.30;0.30;;;22.70;79.30;;;24.86;37.84;100461.50;4987617;28;20667;-66
2022/09/17 08:38:38;;;;;;;0.30;0.30;;;22.50;81.40;;;26.36;35.23;100457.47;4989247;28;20619;-66
2022/09/17 08:41:22;;;;;;;0.50;0.50;;;23.30;79.20;;;26.95;33.91;100462.34;4989890;28;20993;-65
2022/09/17 08:44:05;;;;;;;0.30;0.30;;;24.00;76.80;;;24.93;36.77;100462.31;4989491;28;20688;-65
2022/09/17 08:46:42;;;;;;;0.30;0.30;;;23.30;77.40;;;23.85;38.97;100458.03;4992183;28;20638;-65
2022/09/17 08:49:35;;;;;;;0.30;0.30;;;22.50;79.20;;;25.20;37.49;100464.72;4988503;28;20712;-65
2022/09/17 08:52:14;;;;;;;0.30;0.30;;;22.40;81.60;;;30.38;29.82;100480.59;4989238;28;21046;-65
2022/09/17 08:55:06;;;;;;;0.60;0.60;;;25.00;76.60;;;29.33;30.22;100476.56;4990308;28;20697;-67
2022/09/17 08:57:45;;;;;;;0.30;0.30;;;25.80;72.70;;;31.50;27.35;100483.97;4953886;28;20623;-65
2022/09/17 09:00:17;;;;;;;0.30;0.30;;;27.10;69.60;;;32.57;26.01;100477.56;4987642;28;20712;-65
2022/09/17 09:03:15;;;;;;;0.53;0.53;;;27.70;67.30;;;32.58;25.54;100478.41;4989485;28;20645;-66
2022/09/17 09:05:46;;;;;;;0.30;0.30;;;28.20;65.10;;;31.30;26.81;100471.81;4989225;28;20662;-65
2022/09/17 09:08:40;;;;;;;0.30;0.30;;;27.80;63.50;;;29.24;29.01;100476.09;4981546;28;21229;-65
2022/09/17 09:11:15;;;;;;;0.30;0.30;;;26.90;63.70;;;27.28;32.05;100476.25;4989929;28;20645;-65
2022/09/17 09:14:21;;;;;;;0.30;0.30;;;25.30;66.00;;;24.75;34.85;100464.78;4989018;28;20721;-66
2022/09/17 09:16:49;;;;;;;0.30;0.30;;;23.40;68.10;;;24.49;35.90;100465.59;4989978;28;20690;-65
2022/09/17 09:19:25;;;;;;;0.30;0.30;;;22.60;70.60;;;28.90;29.66;100471.56;4988476;28;21065;-65
2022/09/17 09:22:12;;;;;;;0.30;0.30;;;24.00;69.60;;;31.71;25.79;100470.44;4981834;28;20690;-65
2022/09/17 09:25:15;;;;;;;0.30;0.30;;;26.00;65.20;;;33.50;22.95;100471.44;4985433;28;21186;-65
2022/09/17 09:28:02;;;;;;;0.30;0.30;;;27.80;61.50;;;30.90;25.60;100465.03;4995279;28;20688;-65
2022/09/17 09:30:52;;;;;;;0.30;0.30;;;27.60;60.20;;;29.19;28.18;100470.66;4992960;28;20697;-65
2022/09/17 09:33:36;;;;;;;0.30;0.30;;;26.40;60.80;;;26.97;30.43;100462.94;4993679;28;21071;-65
2022/09/17 09:36:10;;;;;;;0.30;0.30;;;25.20;61.40;;;24.89;33.29;100466.44;4992604;28;20718;-65
2022/09/17 09:39:00;;;;;;;0.30;0.30;;;23.50;64.00;;;25.63;32.85;100467.72;4976415;28;20665;-65
2022/09/17 09:41:42;;;;;;;0.30;0.30;;;23.20;66.20;;;26.41;32.09;100465.66;4993336;28;20627;-65
2022/09/17 09:44:12;;;;;;;0.30;0.30;;;23.80;65.80;;;24.42;35.05;100460.25;4993161;28;20614;-65
2022/09/17 09:47:12;;;;;;;0.30;0.30;;;23.00;66.60;;;24.70;34.09;100453.88;4994501;28;21279;-65
2022/09/17 09:49:57;;;;;;;0.30;0.30;;;22.90;66.70;;;24.65;34.13;100455.31;4993915;28;20696;-65
2022/09/17 09:52:48;;;;;;;0.30;0.30;;;22.80;66.90;;;23.66;35.72;100457.97;4993656;28;21248;-65
2022/09/17 09:55:52;;;;;;;0.30;0.30;;;22.10;67.70;;;22.29;38.33;100457.78;4991914;28;20983;-65
2022/09/17 09:58:36;;;;;;;0.30;0.30;;;21.40;69.50;;;21.44;40.08;100464.72;4974321;28;21159;-65
2022/09/17 10:01:15;;;;;;;0.30;0.30;;;20.60;71.20;;;20.87;41.96;100460.00;4990208;28;20638;-65
2022/09/17 10:03:45;;;;;;;0.30;0.30;;;20.10;73.70;;;20.92;40.47;100463.94;4993868;28;20988;-65
2022/09/17 10:06:14;;;;;;;0.30;0.30;;;19.70;72.80;;;21.19;40.12;100461.50;4991869;28;20659;-65
2022/09/17 10:08:48;;;;;;;0.30;0.30;;;19.70;73.60;;;21.19;40.35;100461.50;4994485;28;20613;-65
2022/09/17 10:11:25;;;;;;;0.30;0.30;;;19.60;74.40;;;21.05;41.85;100466.81;4993628;28;20706;-65
2022/09/17 10:13:52;;;;;;;0.30;0.30;;;19.50;76.10;;;23.17;37.68;100462.59;4991599;28;20676;-65
2022/09/17 10:16:20;;;;;;;0.40;0.40;;;20.30;75.30;;;27.31;30.89;100460.53;4993844;28;20641;-65
2022/09/17 10:18:50;;;;;;;0.30;0.30;;;22.50;70.50;;;30.74;25.68;100463.13;4992842;28;20637;-65
2022/09/17 10:21:32;;;;;;;0.30;0.30;;;24.80;66.50;;;34.42;21.73;100470.59;4991603;28;20638;-65
2022/09/17 10:24:01;;;;;;;0.30;0.30;;;27.00;61.90;;;35.69;20.42;100474.75;4992204;28;21320;-65
2022/09/17 10:26:32;;;;;;;0.30;0.30;;;28.70;58.30;;;35.21;21.03;100459.97;4990692;28;20770;-65
2022/09/17 10:29:04;;;;;;;0.30;0.30;;;29.10;56.80;;;31.18;24.68;100448.72;4991861;28;20615;-65
2022/09/17 10:31:52;;;;;;;0.30;0.30;;;27.80;56.50;;;27.90;28.69;100441.06;4993021;28;20621;-65
2022/09/17 10:34:28;;;;;;;0.30;0.30;;;26.00;59.10;;;26.21;31.70;100435.56;4992911;28;20653;-65
2022/09/17 10:36:56;;;;;;;0.30;0.30;;;24.70;61.60;;;25.01;33.84;100432.72;4991856;28;20665;-66
2022/09/17 10:39:25;;;;;;;0.30;0.30;;;23.70;63.90;;;24.24;35.03;100429.84;4992328;28;21265;-66
2022/09/17 10:42:06;;;;;;;0.30;0.30;;;22.90;65.30;;;23.67;35.80;100422.31;4994079;28;20618;-66